E.r.bristol — A8XQ6 — position and weather

sailwx.info

Track history (hours):
 
Tides and Currents Weather Stations Pressure Air Temp Water Temp Dewpoint Dewpoint Depression Visibility Wind Speed Wind Dir Waves Ship Positions

E.r.bristol

Last reported at 2015-Feb-26 21:32 UTC. Time now 2015-Mar-03 09:00 UTC.
Position N 01°15' E 104°05'.

Length 188 m; draft 11.2 m.

Type: Cargo ship. MMSI: 636092151.

Date/timePositionNaut miles runAvg speedWind from/ knotsBaromVisibWave heightAir tempDewpointWater temp
2015-Feb-26 21:32N 01°15' E 104°05'7 7.3
2015-Feb-26 20:33N 01°17' E 103°58'1 0.9
2015-Feb-26 19:33N 01°17' E 103°57'0 0.1
2015-Feb-26 18:27N 01°17' E 103°57'0 0.1
2015-Feb-26 17:18N 01°17' E 103°57'0 0.0
2015-Feb-26 16:12N 01°17' E 103°57'0 0.1
2015-Feb-26 15:21N 01°17' E 103°57'0 0.0
2015-Feb-26 13:33N 01°17' E 103°57'0 0.0
2015-Feb-26 12:33N 01°17' E 103°57'0 0.0
2015-Feb-26 11:18N 01°17' E 103°57'0 0.1
2015-Feb-26 10:27N 01°17' E 103°57'0 0.1
2015-Feb-26 09:33N 01°17' E 103°57'2 1.7
2015-Feb-26 08:33N 01°15' E 103°57'6 6.3
2015-Feb-26 07:33N 01°12' E 103°52'  
Track history (hours):
 
Tides and Currents Weather Stations Pressure Air Temp Water Temp Dewpoint Dewpoint Depression Visibility Wind Speed Wind Dir Waves Ship Positions

E.r.bristol

Last reported at 2015-Feb-26 21:32 UTC. Time now 2015-Mar-03 09:00 UTC.
Position N 01°15' E 104°05'.

Length 188 m; draft 11.2 m.

Type: Cargo ship. MMSI: 636092151.

Date/timePositionNaut miles runAvg speedWind from/ knotsBaromVisibWave heightAir tempDewpointWater temp
2015-Feb-26 21:32N 01°15' E 104°05'7 7.3
2015-Feb-26 20:33N 01°17' E 103°58'1 0.9
2015-Feb-26 19:33N 01°17' E 103°57'0 0.1
2015-Feb-26 18:27N 01°17' E 103°57'0 0.1
2015-Feb-26 17:18N 01°17' E 103°57'0 0.0
2015-Feb-26 16:12N 01°17' E 103°57'0 0.1
2015-Feb-26 15:21N 01°17' E 103°57'0 0.0
2015-Feb-26 13:33N 01°17' E 103°57'0 0.0
2015-Feb-26 12:33N 01°17' E 103°57'0 0.0
2015-Feb-26 11:18N 01°17' E 103°57'0 0.1
2015-Feb-26 10:27N 01°17' E 103°57'0 0.1
2015-Feb-26 09:33N 01°17' E 103°57'2 1.7
2015-Feb-26 08:33N 01°15' E 103°57'6 6.3
2015-Feb-26 07:33N 01°12' E 103°52'  

Dump ship's entire track history